createdAt,value
2017-10-17T00:00:45.974Z,66.60
2017-10-17T00:03:14.099Z,66.50
2017-10-17T00:05:42.286Z,66.20
2017-10-17T00:08:10.969Z,66.00
2017-10-17T00:10:39.133Z,66.10
2017-10-17T00:13:07.350Z,66.00
2017-10-17T00:15:35.530Z,65.90
2017-10-17T00:18:03.757Z,65.80
2017-10-17T00:20:31.971Z,65.90
2017-10-17T00:23:00.142Z,65.70
2017-10-17T00:25:28.377Z,65.90
2017-10-17T00:27:56.702Z,65.80
2017-10-17T00:30:25.010Z,65.80
2017-10-17T00:32:55.524Z,65.80
2017-10-17T00:35:23.803Z,65.90
2017-10-17T00:37:57.707Z,65.90
2017-10-17T00:40:26.266Z,66.10
2017-10-17T00:42:57.989Z,66.20
2017-10-17T00:45:26.642Z,66.30
2017-10-17T00:47:55.023Z,66.40
2017-10-17T00:50:23.358Z,66.50
2017-10-17T00:52:53.140Z,66.50
2017-10-17T00:55:21.546Z,66.50
2017-10-17T00:57:50.994Z,66.50
2017-10-17T01:00:19.234Z,66.60
2017-10-17T01:02:47.450Z,66.80
2017-10-17T01:05:16.515Z,67.00
2017-10-17T01:07:44.785Z,67.00
2017-10-17T01:10:12.990Z,67.20
2017-10-17T01:12:41.166Z,67.10
2017-10-17T01:15:09.333Z,67.10
2017-10-17T01:17:37.603Z,67.20
2017-10-17T01:20:06.046Z,67.50
2017-10-17T01:22:34.275Z,67.50
2017-10-17T01:25:02.542Z,67.80
2017-10-17T01:27:30.858Z,67.80
2017-10-17T01:29:59.161Z,67.90
2017-10-17T01:32:27.698Z,68.00
2017-10-17T01:34:56.741Z,68.20
2017-10-17T01:37:25.017Z,68.20
2017-10-17T01:39:53.458Z,68.30
2017-10-17T01:42:21.822Z,68.50
2017-10-17T01:44:50.830Z,68.80
2017-10-17T01:47:19.113Z,68.70
2017-10-17T01:49:47.386Z,68.80
2017-10-17T01:52:15.685Z,68.90
2017-10-17T01:54:43.979Z,69.00
2017-10-17T01:57:12.252Z,69.10
2017-10-17T01:59:40.546Z,69.10
2017-10-17T02:02:08.805Z,69.10
2017-10-17T02:04:37.097Z,69.20
2017-10-17T02:07:05.434Z,69.20
2017-10-17T02:09:39.554Z,69.40
2017-10-17T02:12:07.856Z,69.50
2017-10-17T02:14:36.114Z,69.60
2017-10-17T02:17:04.398Z,69.80
2017-10-17T02:19:32.673Z,69.90
2017-10-17T02:22:01.066Z,69.90
2017-10-17T02:24:29.457Z,70.00
2017-10-17T02:26:57.854Z,70.10
2017-10-17T02:29:27.606Z,70.20
2017-10-17T02:31:55.903Z,70.20
2017-10-17T02:34:24.486Z,70.40
2017-10-17T02:36:52.871Z,70.30
2017-10-17T02:39:21.456Z,70.30
2017-10-17T02:41:49.754Z,70.40
2017-10-17T02:44:18.057Z,70.60
2017-10-17T02:46:46.435Z,70.50
2017-10-17T02:49:15.474Z,70.90
2017-10-17T02:51:43.818Z,70.80
2017-10-17T02:54:12.803Z,70.90
2017-10-17T02:56:41.050Z,70.90
2017-10-17T02:59:09.319Z,71.00
2017-10-17T03:01:37.700Z,70.90
2017-10-17T03:04:05.974Z,71.00
2017-10-17T03:06:34.335Z,71.00
2017-10-17T03:09:02.898Z,71.00
2017-10-17T03:11:31.198Z,71.00
2017-10-17T03:13:59.498Z,71.00
2017-10-17T03:16:27.774Z,71.00
2017-10-17T03:18:56.191Z,71.00
2017-10-17T03:21:24.666Z,71.10
2017-10-17T03:23:53.545Z,71.10
2017-10-17T03:26:21.770Z,71.20
2017-10-17T03:28:50.070Z,71.30
2017-10-17T03:31:18.374Z,71.40
2017-10-17T03:33:46.650Z,71.50
2017-10-17T03:36:14.977Z,71.60
2017-10-17T03:38:43.342Z,71.60
2017-10-17T03:41:11.666Z,71.70
2017-10-17T03:43:40.040Z,71.70
2017-10-17T03:46:09.818Z,71.80
2017-10-17T03:48:38.226Z,71.70
2017-10-17T03:51:06.587Z,72.00
2017-10-17T03:53:34.904Z,72.30
2017-10-17T03:56:03.358Z,72.70
2017-10-17T03:58:31.951Z,72.70
2017-10-17T04:01:00.140Z,72.70
2017-10-17T04:03:29.005Z,72.90
2017-10-17T04:05:57.326Z,73.10
2017-10-17T04:08:25.559Z,73.20
2017-10-17T04:10:53.850Z,73.30
2017-10-17T04:13:22.107Z,73.60
2017-10-17T04:15:50.333Z,73.90
2017-10-17T04:18:18.622Z,74.20
2017-10-17T04:20:47.643Z,74.30
2017-10-17T04:23:15.966Z,74.30
2017-10-17T04:25:44.264Z,74.50
2017-10-17T04:28:13.309Z,75.00
2017-10-17T04:30:41.584Z,74.80
2017-10-17T04:33:09.850Z,75.10
2017-10-17T04:35:38.188Z,75.40
2017-10-17T04:38:07.256Z,76.00
2017-10-17T04:40:35.673Z,75.90
2017-10-17T04:43:17.483Z,76.20
2017-10-17T04:45:45.710Z,76.50
2017-10-17T04:48:16.434Z,76.70
2017-10-17T04:50:44.925Z,77.00
2017-10-17T04:53:20.966Z,77.30
2017-10-17T04:55:49.653Z,77.50
2017-10-17T04:58:18.478Z,77.80
2017-10-17T05:00:47.069Z,77.90
2017-10-17T05:03:15.412Z,78.00
2017-10-17T05:05:44.117Z,78.10
2017-10-17T05:08:12.614Z,78.20
2017-10-17T05:10:41.052Z,79.10
2017-10-17T05:13:09.756Z,78.50
2017-10-17T05:15:38.001Z,78.60
2017-10-17T05:18:06.256Z,78.90
2017-10-17T05:20:34.538Z,79.20
2017-10-17T05:23:03.327Z,79.30
2017-10-17T05:25:31.628Z,79.40
2017-10-17T05:28:03.126Z,79.40
2017-10-17T05:30:32.158Z,79.10
2017-10-17T05:33:08.781Z,79.00
2017-10-17T05:35:36.996Z,79.10
2017-10-17T05:38:05.297Z,79.40
2017-10-17T05:40:33.681Z,79.30
2017-10-17T05:43:01.982Z,79.40
2017-10-17T05:45:30.396Z,79.60
2017-10-17T05:47:59.635Z,79.90
2017-10-17T05:50:28.276Z,80.50
2017-10-17T05:52:57.246Z,81.30
2017-10-17T05:55:25.354Z,81.20
2017-10-17T05:57:53.510Z,81.30
2017-10-17T06:00:22.374Z,81.00
2017-10-17T06:02:50.514Z,81.00
2017-10-17T06:05:18.688Z,80.90
2017-10-17T06:07:46.770Z,80.90
2017-10-17T06:10:14.906Z,81.00
2017-10-17T06:12:44.318Z,79.90
2017-10-17T06:15:12.471Z,79.70
2017-10-17T06:17:41.330Z,78.20
2017-10-17T06:20:09.461Z,78.20
2017-10-17T06:22:37.578Z,76.40
2017-10-17T06:25:05.702Z,75.30
2017-10-17T06:27:33.802Z,73.70
2017-10-17T06:30:01.915Z,73.10
2017-10-17T06:32:30.032Z,73.30
2017-10-17T06:34:58.150Z,73.40
2017-10-17T06:37:27.757Z,73.50
2017-10-17T06:39:55.845Z,73.50
2017-10-17T06:42:23.935Z,74.10
2017-10-17T06:44:52.766Z,75.00
2017-10-17T06:47:20.962Z,75.00
2017-10-17T06:49:49.080Z,76.50
2017-10-17T06:52:17.167Z,77.10
2017-10-17T06:54:45.243Z,77.10
2017-10-17T06:57:13.407Z,77.10
2017-10-17T06:59:41.518Z,77.20
2017-10-17T07:02:09.641Z,77.00
2017-10-17T07:04:37.731Z,76.90
2017-10-17T07:07:05.872Z,77.00
2017-10-17T07:09:34.766Z,76.60
2017-10-17T07:12:03.691Z,76.40
2017-10-17T07:14:31.842Z,76.20
2017-10-17T07:16:59.930Z,75.70
2017-10-17T07:19:28.041Z,74.30
2017-10-17T07:21:56.177Z,73.10
2017-10-17T07:24:24.353Z,71.50
2017-10-17T07:26:52.505Z,70.30
2017-10-17T07:29:21.350Z,68.90
2017-10-17T07:31:49.650Z,68.90
2017-10-17T07:34:17.779Z,68.80
2017-10-17T07:36:45.917Z,69.10
2017-10-17T07:39:14.011Z,69.50
2017-10-17T07:41:42.075Z,70.00
2017-10-17T07:44:10.163Z,70.50
2017-10-17T07:46:38.253Z,70.60
2017-10-17T07:49:06.846Z,70.40
2017-10-17T07:51:34.974Z,70.20
2017-10-17T07:54:03.114Z,70.20
2017-10-17T07:56:31.242Z,70.10
2017-10-17T07:58:59.363Z,70.80
2017-10-17T08:01:27.461Z,70.10
2017-10-17T08:03:55.530Z,69.80
2017-10-17T08:06:23.675Z,69.90
2017-10-17T08:08:51.827Z,69.70
2017-10-17T08:11:19.990Z,70.70
2017-10-17T08:13:48.425Z,69.50
2017-10-17T08:16:16.555Z,69.50
2017-10-17T08:18:44.630Z,69.70
2017-10-17T08:21:12.734Z,69.90
2017-10-17T08:23:40.830Z,70.20
2017-10-17T08:26:08.970Z,70.70
2017-10-17T08:28:37.039Z,71.10
2017-10-17T08:31:05.150Z,71.10
2017-10-17T08:33:33.269Z,71.30
2017-10-17T08:36:01.398Z,70.70
2017-10-17T08:38:29.586Z,70.30
2017-10-17T08:40:57.730Z,69.90
2017-10-17T08:43:26.579Z,69.90
2017-10-17T08:45:54.718Z,69.90
2017-10-17T08:48:22.950Z,69.70
2017-10-17T08:50:51.498Z,69.20
2017-10-17T08:53:19.641Z,68.50
2017-10-17T08:55:47.726Z,68.20
2017-10-17T08:58:15.870Z,68.10
2017-10-17T09:00:44.754Z,67.20
2017-10-17T09:03:13.624Z,66.90
2017-10-17T09:05:41.692Z,66.90
2017-10-17T09:08:09.884Z,67.00
2017-10-17T09:10:39.656Z,66.90
2017-10-17T09:13:07.746Z,66.80
2017-10-17T09:15:35.833Z,67.10
2017-10-17T09:18:04.027Z,66.90
2017-10-17T09:20:32.222Z,66.90
2017-10-17T09:23:00.301Z,67.00
2017-10-17T09:25:28.373Z,67.00
2017-10-17T09:27:56.482Z,67.40
2017-10-17T09:30:24.575Z,67.50
2017-10-17T09:32:54.303Z,67.50
2017-10-17T09:35:22.398Z,67.50
2017-10-17T09:37:50.518Z,67.30
2017-10-17T09:40:18.619Z,67.10
2017-10-17T09:42:47.673Z,66.60
2017-10-17T09:45:15.801Z,66.60
2017-10-17T09:47:44.661Z,65.40
2017-10-17T09:50:12.758Z,65.20
2017-10-17T09:52:42.062Z,64.60
2017-10-17T09:55:10.900Z,63.60
2017-10-17T09:57:39.022Z,63.50
2017-10-17T10:00:07.894Z,63.20
2017-10-17T10:02:36.010Z,63.10
2017-10-17T10:05:04.208Z,62.90
2017-10-17T10:07:32.338Z,62.50
2017-10-17T10:10:01.175Z,62.40
2017-10-17T10:12:29.343Z,62.30
2017-10-17T10:14:57.489Z,63.00
2017-10-17T10:17:25.656Z,63.00
2017-10-17T10:19:54.545Z,62.10
2017-10-17T10:22:23.449Z,62.00
2017-10-17T10:24:51.614Z,62.00
2017-10-17T10:27:19.770Z,61.80
2017-10-17T10:29:48.614Z,60.30
2017-10-17T10:32:16.710Z,60.30
2017-10-17T10:34:44.946Z,60.30
2017-10-17T10:37:13.050Z,60.50
2017-10-17T10:39:41.146Z,60.60
2017-10-17T10:42:10.066Z,60.20
2017-10-17T10:44:38.214Z,60.00
2017-10-17T10:47:06.307Z,59.90
2017-10-17T10:49:34.438Z,58.40
2017-10-17T10:52:02.537Z,57.90
2017-10-17T10:54:31.358Z,57.80
2017-10-17T10:56:59.446Z,57.80
2017-10-17T10:59:27.556Z,57.80
2017-10-17T11:01:55.646Z,58.50
2017-10-17T11:04:24.599Z,57.20
2017-10-17T11:06:52.752Z,57.10
2017-10-17T11:09:20.854Z,56.80
2017-10-17T11:11:48.968Z,56.20
2017-10-17T11:14:17.106Z,56.20
2017-10-17T11:16:45.263Z,55.80
2017-10-17T11:19:13.355Z,55.80
2017-10-17T11:21:41.494Z,55.80
2017-10-17T11:24:09.709Z,56.50
2017-10-17T11:26:37.862Z,56.40
2017-10-17T11:29:05.970Z,55.80
2017-10-17T11:31:34.103Z,56.30
2017-10-17T11:34:02.246Z,54.90
2017-10-17T11:36:30.441Z,55.10
2017-10-17T11:38:58.599Z,55.50
2017-10-17T11:43:59.559Z,55.00
2017-10-17T11:46:27.781Z,54.80
2017-10-17T11:48:55.959Z,55.20
2017-10-17T11:51:24.078Z,55.30
2017-10-17T11:53:52.193Z,55.20
2017-10-17T11:56:20.295Z,54.70
2017-10-17T11:58:48.395Z,54.40
2017-10-17T12:01:16.569Z,54.30
2017-10-17T12:03:44.702Z,54.60
2017-10-17T12:06:13.606Z,54.50
2017-10-17T12:08:41.728Z,54.50
2017-10-17T12:11:09.938Z,53.90
2017-10-17T12:13:38.288Z,53.70
2017-10-17T12:16:06.430Z,53.30
2017-10-17T12:18:34.605Z,52.60
2017-10-17T12:21:02.827Z,52.60
2017-10-17T12:23:31.714Z,52.70
2017-10-17T12:25:59.909Z,52.60
2017-10-17T12:28:28.018Z,53.00
2017-10-17T12:30:56.146Z,53.60
2017-10-17T12:33:24.238Z,53.90
2017-10-17T12:35:52.371Z,53.50
2017-10-17T12:38:20.470Z,52.40
2017-10-17T12:40:48.591Z,52.40
2017-10-17T12:43:16.658Z,51.50
2017-10-17T12:45:44.754Z,51.80
2017-10-17T12:48:12.863Z,52.20
2017-10-17T12:50:40.973Z,52.40
2017-10-17T12:53:09.104Z,52.60
2017-10-17T12:55:37.940Z,52.40
2017-10-17T12:58:06.066Z,52.20
2017-10-17T13:00:34.246Z,52.50
2017-10-17T13:03:02.357Z,52.80
2017-10-17T13:05:30.446Z,53.60
2017-10-17T13:07:58.612Z,53.60
2017-10-17T13:10:26.751Z,53.70
2017-10-17T13:12:54.906Z,53.50
2017-10-17T13:15:23.126Z,53.90
2017-10-17T13:17:51.313Z,53.30
2017-10-17T13:20:19.505Z,53.20
2017-10-17T13:22:47.645Z,53.80
2017-10-17T13:25:15.817Z,54.60
2017-10-17T13:27:43.966Z,53.20
2017-10-17T13:30:12.814Z,52.90
2017-10-17T13:32:40.942Z,52.90
2017-10-17T13:35:09.818Z,53.60
2017-10-17T13:37:38.682Z,53.90
2017-10-17T13:40:06.775Z,53.90
2017-10-17T13:42:34.857Z,53.70
2017-10-17T13:45:03.009Z,53.40
2017-10-17T13:47:31.142Z,53.50
2017-10-17T13:49:59.230Z,53.70
2017-10-17T13:52:27.377Z,54.20
2017-10-17T13:54:55.478Z,54.80
2017-10-17T13:57:23.604Z,55.00
2017-10-17T13:59:51.682Z,54.80
2017-10-17T14:02:19.768Z,54.60
2017-10-17T14:04:47.901Z,54.60
2017-10-17T14:07:16.001Z,55.10
2017-10-17T14:09:44.174Z,55.60
2017-10-17T14:12:12.296Z,55.60
2017-10-17T14:14:40.786Z,55.60
2017-10-17T14:17:08.975Z,55.60
2017-10-17T14:19:37.071Z,56.00
2017-10-17T14:22:05.205Z,55.80
2017-10-17T14:24:33.325Z,56.00
2017-10-17T14:27:01.489Z,56.10
2017-10-17T14:29:29.631Z,56.10
2017-10-17T14:31:57.729Z,56.60
2017-10-17T14:34:26.621Z,56.90
2017-10-17T14:36:55.460Z,57.00
2017-10-17T14:39:23.547Z,57.00
2017-10-17T14:41:51.685Z,57.10
2017-10-17T14:44:19.774Z,57.30
2017-10-17T14:46:47.880Z,57.70
2017-10-17T14:49:15.995Z,57.90
2017-10-17T14:51:44.190Z,57.70
2017-10-17T14:54:12.329Z,58.10
2017-10-17T14:56:40.484Z,58.50
2017-10-17T14:59:09.289Z,58.30
2017-10-17T15:01:37.359Z,58.10
2017-10-17T15:04:05.451Z,58.20
2017-10-17T15:06:33.533Z,58.60
2017-10-17T15:09:01.630Z,58.60
2017-10-17T15:11:29.845Z,58.70
2017-10-17T15:13:57.952Z,58.90
2017-10-17T15:16:26.106Z,58.90
2017-10-17T15:18:54.930Z,59.40
2017-10-17T15:21:23.030Z,59.40
2017-10-17T15:23:51.115Z,59.30
2017-10-17T15:26:19.225Z,60.00
2017-10-17T15:28:47.334Z,59.40
2017-10-17T15:31:15.431Z,59.70
2017-10-17T15:33:44.997Z,59.60
2017-10-17T15:36:13.146Z,59.40
2017-10-17T15:38:41.231Z,60.10
2017-10-17T15:41:09.333Z,60.60
2017-10-17T15:43:37.426Z,60.70
2017-10-17T15:46:05.902Z,60.80
2017-10-17T15:48:34.016Z,61.20
2017-10-17T15:51:02.094Z,61.00
2017-10-17T15:53:30.223Z,61.20
2017-10-17T15:55:58.317Z,61.40
2017-10-17T15:58:27.176Z,62.00
2017-10-17T16:00:55.298Z,62.00
2017-10-17T16:03:23.384Z,62.50
2017-10-17T16:05:51.446Z,62.50
2017-10-17T16:08:19.546Z,62.60
2017-10-17T16:10:47.617Z,63.00
2017-10-17T16:13:15.722Z,63.20
2017-10-17T16:15:43.830Z,63.20
2017-10-17T16:18:11.918Z,63.50
2017-10-17T16:20:40.008Z,63.90
2017-10-17T16:23:08.154Z,64.10
2017-10-17T16:25:36.251Z,64.20
2017-10-17T16:28:04.799Z,64.40
2017-10-17T16:30:33.829Z,64.50
2017-10-17T16:33:01.965Z,64.50
2017-10-17T16:35:30.802Z,65.10
2017-10-17T16:37:58.949Z,65.10
2017-10-17T16:40:27.030Z,65.40
2017-10-17T16:42:55.119Z,65.60
2017-10-17T16:45:23.275Z,65.60
2017-10-17T16:47:51.381Z,65.80
2017-10-17T16:50:19.522Z,66.10
2017-10-17T16:52:47.611Z,66.10
2017-10-17T16:55:15.743Z,66.40
2017-10-17T16:57:43.891Z,66.50
2017-10-17T17:00:12.073Z,66.70
2017-10-17T17:02:40.190Z,66.90
2017-10-17T17:05:08.403Z,67.00
2017-10-17T17:07:36.736Z,67.00
2017-10-17T17:10:04.875Z,67.10
2017-10-17T17:12:34.026Z,67.60
2017-10-17T17:15:02.118Z,67.50
2017-10-17T17:17:30.574Z,67.70
2017-10-17T17:19:58.695Z,68.00
2017-10-17T17:22:26.786Z,68.00
2017-10-17T17:24:54.912Z,68.30
2017-10-17T17:27:23.030Z,68.50
2017-10-17T17:29:51.937Z,68.90
2017-10-17T17:32:20.014Z,68.80
2017-10-17T17:34:48.127Z,69.10
2017-10-17T17:37:16.266Z,69.70
2017-10-17T17:39:44.638Z,69.70
2017-10-17T17:42:12.776Z,70.00
2017-10-17T17:44:40.878Z,69.80
2017-10-17T17:47:09.589Z,70.10
2017-10-17T17:49:37.783Z,70.20
2017-10-17T17:52:05.959Z,70.50
2017-10-17T17:54:34.114Z,70.50
2017-10-17T17:57:02.262Z,70.70
2017-10-17T17:59:30.431Z,70.80
2017-10-17T18:01:58.534Z,70.90
2017-10-17T18:04:26.851Z,71.20
2017-10-17T18:06:54.973Z,71.30
2017-10-17T18:09:23.094Z,71.60
2017-10-17T18:11:51.198Z,71.80
2017-10-17T18:14:19.377Z,72.10
2017-10-17T18:16:48.378Z,72.20
2017-10-17T18:19:16.626Z,72.30
2017-10-17T18:21:44.735Z,72.50
2017-10-17T18:24:12.924Z,72.70
2017-10-17T18:26:41.063Z,72.90
2017-10-17T18:29:09.210Z,73.30
2017-10-17T18:31:37.335Z,73.60
2017-10-17T18:34:05.424Z,73.90
2017-10-17T18:36:33.518Z,74.00
2017-10-17T18:39:01.578Z,74.20
2017-10-17T18:41:29.647Z,74.50
2017-10-17T18:43:57.722Z,74.80
2017-10-17T18:46:25.782Z,75.10
2017-10-17T18:48:53.911Z,75.30
2017-10-17T18:51:22.227Z,75.30
2017-10-17T18:53:50.359Z,75.70
2017-10-17T18:56:19.295Z,76.00
2017-10-17T18:58:47.414Z,75.90
2017-10-17T19:01:15.501Z,76.00
2017-10-17T19:03:43.667Z,76.30
2017-10-17T19:06:12.566Z,76.70
2017-10-17T19:08:41.416Z,76.80
2017-10-17T19:11:09.626Z,76.70
2017-10-17T19:13:37.812Z,77.00
2017-10-17T19:16:05.914Z,77.10
2017-10-17T19:18:34.141Z,77.20
2017-10-17T19:21:02.998Z,77.40
2017-10-17T19:23:31.109Z,77.30
2017-10-17T19:25:59.940Z,77.60
2017-10-17T19:28:28.062Z,77.60
2017-10-17T19:30:56.201Z,77.70
2017-10-17T19:33:24.310Z,78.00
2017-10-17T19:35:52.494Z,78.10
2017-10-17T19:38:21.347Z,78.50
2017-10-17T19:40:49.450Z,78.40
2017-10-17T19:43:18.290Z,78.90
2017-10-17T19:45:46.414Z,79.70
2017-10-17T19:48:15.282Z,79.20
2017-10-17T19:50:43.406Z,79.20
2017-10-17T19:53:11.511Z,79.90
2017-10-17T19:55:39.673Z,79.30
2017-10-17T19:58:07.899Z,79.50
2017-10-17T20:00:36.097Z,79.60
2017-10-17T20:03:04.243Z,79.70
2017-10-17T20:05:32.335Z,79.90
2017-10-17T20:08:00.426Z,80.00
2017-10-17T20:10:28.553Z,80.10
2017-10-17T20:12:56.662Z,80.30
2017-10-17T20:15:24.831Z,80.50
2017-10-17T20:17:52.940Z,80.60
2017-10-17T20:20:21.122Z,80.80
2017-10-17T20:22:49.306Z,80.90
2017-10-17T20:25:17.494Z,81.00
2017-10-17T20:27:45.630Z,81.30
2017-10-17T20:30:13.736Z,81.50
2017-10-17T20:32:41.862Z,81.70
2017-10-17T20:35:10.055Z,82.00
2017-10-17T20:37:38.170Z,82.20
2017-10-17T20:40:07.075Z,82.40
2017-10-17T20:42:35.950Z,82.50
2017-10-17T20:45:04.115Z,82.40
2017-10-17T20:47:33.714Z,82.60
2017-10-17T20:50:01.842Z,82.60
2017-10-17T20:52:29.970Z,83.00
2017-10-17T20:54:58.111Z,83.00
2017-10-17T20:57:26.210Z,83.10
2017-10-17T20:59:54.318Z,83.90
2017-10-17T21:02:23.182Z,83.60
2017-10-17T21:04:51.261Z,83.40
2017-10-17T21:07:20.166Z,84.00
2017-10-17T21:09:48.997Z,84.10
2017-10-17T21:12:17.095Z,84.10
2017-10-17T21:14:45.248Z,84.10
2017-10-17T21:17:13.351Z,84.00
2017-10-17T21:19:42.206Z,84.30
2017-10-17T21:22:10.286Z,84.40
2017-10-17T21:24:38.405Z,84.60
2017-10-17T21:27:06.546Z,84.70
2017-10-17T21:29:34.675Z,84.90
2017-10-17T21:32:02.751Z,85.00
2017-10-17T21:34:31.019Z,85.00
2017-10-17T21:36:59.199Z,85.10
2017-10-17T21:39:27.370Z,85.10
2017-10-17T21:41:55.493Z,85.10
2017-10-17T21:44:23.578Z,85.20
2017-10-17T21:46:53.149Z,85.60
2017-10-17T21:49:21.238Z,85.60
2017-10-17T21:51:49.318Z,85.70
2017-10-17T21:54:17.434Z,85.80
2017-10-17T21:56:46.302Z,86.10
2017-10-17T21:59:14.407Z,85.90
2017-10-17T22:01:42.501Z,86.20
2017-10-17T22:04:10.573Z,86.40
2017-10-17T22:06:38.645Z,86.50
2017-10-17T22:09:06.753Z,86.60
2017-10-17T22:11:35.126Z,86.60
2017-10-17T22:14:03.206Z,86.60
2017-10-17T22:16:31.330Z,86.60
2017-10-17T22:18:59.430Z,87.40
2017-10-17T22:21:27.588Z,86.70
2017-10-17T22:23:55.734Z,86.60
2017-10-17T22:26:24.447Z,86.60
2017-10-17T22:28:52.582Z,86.30
2017-10-17T22:31:20.692Z,86.10
2017-10-17T22:33:49.587Z,86.00
2017-10-17T22:36:17.867Z,85.80
2017-10-17T22:38:46.098Z,85.70
2017-10-17T22:41:14.204Z,85.70
2017-10-17T22:43:42.344Z,86.00
2017-10-17T22:46:11.234Z,86.10
2017-10-17T22:48:40.081Z,86.30
2017-10-17T22:51:08.233Z,86.20
2017-10-17T22:53:36.415Z,86.50
2017-10-17T22:56:04.474Z,86.70
2017-10-17T22:58:32.577Z,87.10
2017-10-17T23:01:00.769Z,87.10
2017-10-17T23:03:28.858Z,87.30
2017-10-17T23:05:56.971Z,87.30
2017-10-17T23:08:25.067Z,87.30
2017-10-17T23:10:53.174Z,87.20
2017-10-17T23:13:22.011Z,87.10
2017-10-17T23:15:50.134Z,87.00
2017-10-17T23:21:29.960Z,86.80
2017-10-17T23:23:58.122Z,86.60
2017-10-17T23:26:26.210Z,87.30
2017-10-17T23:28:54.326Z,87.30
2017-10-17T23:31:23.184Z,87.50
2017-10-17T23:33:51.330Z,87.40
2017-10-17T23:36:19.437Z,87.40
2017-10-17T23:38:47.626Z,87.20
2017-10-17T23:41:15.698Z,87.10
2017-10-17T23:43:43.961Z,87.10
2017-10-17T23:46:12.077Z,87.30
2017-10-17T23:48:40.908Z,87.20
2017-10-17T23:51:09.042Z,87.00
2017-10-17T23:53:37.156Z,86.90
2017-10-17T23:56:05.244Z,86.80
2017-10-17T23:58:33.359Z,86.80
